createdAt,value
2019-02-20T00:02:04.573Z,100104.30
2019-02-20T00:04:31.115Z,100093.28
2019-02-20T00:06:57.672Z,100106.56
2019-02-20T00:09:25.164Z,100106.56
2019-02-20T00:11:51.888Z,100112.99
2019-02-20T00:14:18.435Z,100106.84
2019-02-20T00:16:45.002Z,100106.84
2019-02-20T00:19:11.548Z,100116.69
2019-02-20T00:21:51.495Z,100110.30
2019-02-20T00:24:18.069Z,100110.30
2019-02-20T00:26:44.646Z,100122.89
2019-02-20T00:29:11.198Z,100124.24
2019-02-20T00:31:37.760Z,100124.24
2019-02-20T00:34:04.323Z,100124.98
2019-02-20T00:36:30.896Z,100124.63
2019-02-20T00:38:57.445Z,100101.25
2019-02-20T00:41:24.015Z,100125.95
2019-02-20T00:44:06.728Z,100128.28
2019-02-20T00:46:38.609Z,100128.13
2019-02-20T00:49:17.559Z,100119.67
2019-02-20T00:51:58.504Z,100119.67
2019-02-20T00:54:25.103Z,100119.31
2019-02-20T00:56:51.662Z,100125.37
2019-02-20T00:59:18.209Z,100119.67
2019-02-20T01:01:44.767Z,100127.49
2019-02-20T01:04:11.312Z,100126.74
2019-02-20T01:06:37.896Z,100127.91
2019-02-20T01:09:05.575Z,100123.45
2019-02-20T01:11:32.116Z,100125.88
2019-02-20T01:13:58.704Z,100131.12
2019-02-20T01:16:25.270Z,100121.77
2019-02-20T01:18:51.817Z,100123.28
2019-02-20T01:21:18.422Z,100114.91
2019-02-20T01:23:44.976Z,100114.91
2019-02-20T01:26:11.521Z,100127.70
2019-02-20T01:28:38.099Z,100127.08
2019-02-20T01:31:04.641Z,100124.13
2019-02-20T01:33:31.218Z,100134.05
2019-02-20T01:35:57.770Z,100134.05
2019-02-20T01:38:24.339Z,100123.84
2019-02-20T01:40:50.895Z,100122.51
2019-02-20T01:43:17.457Z,100115.99
2019-02-20T01:45:44.009Z,100116.23
2019-02-20T01:48:10.586Z,100110.19
2019-02-20T01:50:37.142Z,100103.12
2019-02-20T01:53:10.111Z,100107.41
2019-02-20T01:55:32.150Z,100109.23
2019-02-20T01:57:58.739Z,100109.32
2019-02-20T02:00:25.287Z,100110.52
2019-02-20T02:02:51.856Z,100110.52
2019-02-20T02:05:18.414Z,100116.10
2019-02-20T02:07:44.998Z,100120.08
2019-02-20T02:10:11.549Z,100123.97
2019-02-20T02:12:38.117Z,100129.81
2019-02-20T02:15:05.730Z,100122.09
2019-02-20T02:17:32.475Z,100123.61
2019-02-20T02:19:59.034Z,100117.56
2019-02-20T02:22:25.687Z,100113.31
2019-02-20T02:25:11.866Z,100117.88
2019-02-20T02:27:38.456Z,100104.66
2019-02-20T02:30:05.476Z,100109.38
2019-02-20T02:32:32.024Z,100108.69
2019-02-20T02:34:58.575Z,100101.03
2019-02-20T02:37:25.106Z,100102.95
2019-02-20T02:39:51.667Z,100094.17
2019-02-20T02:42:18.219Z,100098.28
2019-02-20T02:44:44.780Z,100082.83
2019-02-20T02:47:11.326Z,100089.67
2019-02-20T02:49:37.894Z,100089.41
2019-02-20T02:52:04.460Z,100093.12
2019-02-20T02:54:31.049Z,100094.02
2019-02-20T02:56:57.602Z,100098.49
2019-02-20T02:59:24.169Z,100098.70
2019-02-20T03:01:50.739Z,100099.33
2019-02-20T03:04:17.319Z,100108.30
2019-02-20T03:06:43.870Z,100099.72
2019-02-20T03:09:10.437Z,100097.33
2019-02-20T03:11:36.983Z,100102.53
2019-02-20T03:14:03.548Z,100102.53
2019-02-20T03:16:30.091Z,100107.59
2019-02-20T03:18:56.655Z,100103.75
2019-02-20T03:21:23.193Z,100100.12
2019-02-20T03:23:49.797Z,100096.15
2019-02-20T03:26:16.359Z,100096.15
2019-02-20T03:28:42.924Z,100104.00
2019-02-20T03:31:09.472Z,100098.09
2019-02-20T03:33:36.029Z,100098.20
2019-02-20T03:36:02.601Z,100095.77
2019-02-20T03:38:30.608Z,100102.27
2019-02-20T03:40:57.413Z,100099.13
2019-02-20T03:43:23.988Z,100095.38
2019-02-20T03:45:50.531Z,100094.68
2019-02-20T03:48:17.073Z,100095.72
2019-02-20T03:50:43.650Z,100092.42
2019-02-20T03:53:10.231Z,100092.42
2019-02-20T03:55:36.779Z,100096.73
2019-02-20T03:58:03.431Z,100091.82
2019-02-20T04:00:30.014Z,100093.89
2019-02-20T04:02:56.584Z,100088.00
2019-02-20T04:05:23.209Z,100092.80
2019-02-20T04:07:49.752Z,100089.83
2019-02-20T04:10:16.398Z,100086.83
2019-02-20T04:12:42.998Z,100090.88
2019-02-20T04:15:09.566Z,100090.35
2019-02-20T04:17:36.126Z,100087.91
2019-02-20T04:20:03.724Z,100098.30
2019-02-20T04:22:30.285Z,100089.72
2019-02-20T04:24:56.855Z,100093.31
2019-02-20T04:27:23.400Z,100089.25
2019-02-20T04:29:50.328Z,100088.75
2019-02-20T04:32:16.905Z,100089.25
2019-02-20T04:34:43.479Z,100092.27
2019-02-20T04:37:10.030Z,100096.16
2019-02-20T04:39:36.618Z,100102.27
2019-02-20T04:42:03.158Z,100104.27
2019-02-20T04:44:30.079Z,100108.24
2019-02-20T04:46:56.630Z,100108.22
2019-02-20T04:49:23.214Z,100115.57
2019-02-20T04:51:49.774Z,100110.16
2019-02-20T04:54:16.325Z,100109.28
2019-02-20T04:56:42.878Z,100107.34
2019-02-20T04:59:09.454Z,100105.04
2019-02-20T05:01:36.014Z,100100.14
2019-02-20T05:04:02.604Z,100098.55
2019-02-20T05:06:29.174Z,100098.55
2019-02-20T05:08:55.713Z,100104.00
2019-02-20T05:11:22.273Z,100107.38
2019-02-20T05:13:48.832Z,100104.36
2019-02-20T05:16:15.413Z,100104.36
2019-02-20T05:18:41.984Z,100101.34
2019-02-20T05:21:08.535Z,100104.00
2019-02-20T05:23:35.132Z,100101.25
2019-02-20T05:26:01.667Z,100106.62
2019-02-20T05:28:28.228Z,100105.88
2019-02-20T05:30:54.803Z,100103.28
2019-02-20T05:33:21.343Z,100108.81
2019-02-20T05:35:47.904Z,100103.02
2019-02-20T05:38:14.469Z,100104.33
2019-02-20T05:40:41.041Z,100105.25
2019-02-20T05:43:07.599Z,100105.46
2019-02-20T05:45:34.165Z,100108.81
2019-02-20T05:48:00.741Z,100108.52
2019-02-20T05:50:27.822Z,100110.30
2019-02-20T05:52:54.389Z,100107.41
2019-02-20T05:55:20.952Z,100112.46
2019-02-20T05:57:47.506Z,100114.70
2019-02-20T06:00:14.273Z,100121.91
2019-02-20T06:02:40.849Z,100123.14
2019-02-20T06:05:07.413Z,100123.14
2019-02-20T06:07:33.962Z,100129.02
2019-02-20T06:10:00.563Z,100128.19
2019-02-20T06:12:27.132Z,100136.31
2019-02-20T06:14:53.708Z,100127.98
2019-02-20T06:17:20.267Z,100139.43
2019-02-20T06:19:46.812Z,100141.29
2019-02-20T06:22:13.396Z,100144.51
2019-02-20T06:24:44.143Z,100137.81
2019-02-20T06:27:08.415Z,100142.34
2019-02-20T06:29:34.981Z,100147.27
2019-02-20T06:32:01.546Z,100147.27
2019-02-20T06:34:28.106Z,100147.27
2019-02-20T06:36:54.690Z,100147.27
2019-02-20T06:39:21.263Z,100157.06
2019-02-20T06:41:47.819Z,100151.97
2019-02-20T06:44:14.400Z,100158.80
2019-02-20T06:46:40.959Z,100163.75
2019-02-20T06:49:07.506Z,100165.97
2019-02-20T06:51:34.077Z,100167.97
2019-02-20T06:54:00.627Z,100169.42
2019-02-20T06:56:27.199Z,100169.83
2019-02-20T06:58:53.750Z,100176.88
2019-02-20T07:01:20.418Z,100175.32
2019-02-20T07:03:46.965Z,100175.32
2019-02-20T07:06:21.428Z,100172.98
2019-02-20T07:09:45.829Z,100188.48
2019-02-20T07:12:51.713Z,100196.73
2019-02-20T07:15:34.054Z,100192.70
2019-02-20T07:18:38.469Z,100198.33
2019-02-20T07:21:33.340Z,100198.33
2019-02-20T07:24:31.894Z,100195.97
2019-02-20T07:27:42.475Z,100201.86
2019-02-20T07:30:09.265Z,100198.58
2019-02-20T07:32:35.845Z,100206.11
2019-02-20T07:35:02.420Z,100202.61
2019-02-20T07:37:28.979Z,100216.58
2019-02-20T07:39:57.300Z,100213.92
2019-02-20T07:42:23.989Z,100216.30
2019-02-20T07:44:50.536Z,100211.33
2019-02-20T07:47:17.102Z,100214.77
2019-02-20T07:49:43.666Z,100216.80
2019-02-20T07:52:10.245Z,100225.59
2019-02-20T07:54:36.792Z,100227.37
2019-02-20T07:57:03.445Z,100236.34
2019-02-20T07:59:29.956Z,100234.78
2019-02-20T08:01:56.546Z,100235.33
2019-02-20T08:04:23.072Z,100233.95
2019-02-20T08:06:49.603Z,100237.41
2019-02-20T08:09:16.166Z,100235.85
2019-02-20T08:11:42.702Z,100246.81
2019-02-20T08:14:09.864Z,100242.31
2019-02-20T08:16:36.397Z,100244.23
2019-02-20T08:19:02.964Z,100241.84
2019-02-20T08:21:29.494Z,100255.58
2019-02-20T08:23:56.074Z,100258.81
2019-02-20T08:26:22.602Z,100264.32
2019-02-20T08:28:49.174Z,100266.72
2019-02-20T08:31:15.702Z,100264.52
2019-02-20T08:33:42.266Z,100267.35
2019-02-20T08:36:08.816Z,100250.69
2019-02-20T08:38:35.372Z,100277.77
2019-02-20T08:41:01.906Z,100256.49
2019-02-20T08:43:28.753Z,100250.52
2019-02-20T08:45:55.287Z,100284.05
2019-02-20T08:48:21.840Z,100288.91
2019-02-20T08:50:48.383Z,100296.76
2019-02-20T08:53:14.930Z,100284.29
2019-02-20T08:55:41.469Z,100293.21
2019-02-20T08:58:08.028Z,100296.27
2019-02-20T09:00:34.564Z,100299.39
2019-02-20T09:03:01.120Z,100289.00
2019-02-20T09:05:27.671Z,100306.33
2019-02-20T09:07:54.227Z,100297.02
2019-02-20T09:10:20.757Z,100301.35
2019-02-20T09:12:47.298Z,100293.97
2019-02-20T09:15:13.864Z,100302.78
2019-02-20T09:17:40.394Z,100299.45
2019-02-20T09:20:07.695Z,100289.94
2019-02-20T09:22:34.267Z,100309.61
2019-02-20T09:25:00.832Z,100311.78
2019-02-20T09:27:27.404Z,100308.76
2019-02-20T09:29:53.928Z,100313.02
2019-02-20T09:32:20.451Z,100312.64
2019-02-20T09:34:47.002Z,100310.64
2019-02-20T09:37:13.540Z,100307.47
2019-02-20T09:39:40.090Z,100319.38
2019-02-20T09:42:14.605Z,100321.93
2019-02-20T09:44:45.705Z,100320.92
2019-02-20T09:47:12.230Z,100318.81
2019-02-20T09:49:38.777Z,100317.42
2019-02-20T09:52:05.305Z,100321.08
2019-02-20T09:54:31.866Z,100323.33
2019-02-20T09:56:58.393Z,100330.39
2019-02-20T09:59:24.937Z,100327.39
2019-02-20T10:01:51.478Z,100329.86
2019-02-20T10:04:18.043Z,100317.78
2019-02-20T10:06:44.815Z,100323.44
2019-02-20T10:09:11.383Z,100327.55
2019-02-20T10:11:37.907Z,100319.19
2019-02-20T10:14:04.438Z,100324.20
2019-02-20T10:16:31.002Z,100324.68
2019-02-20T10:18:57.537Z,100329.78
2019-02-20T10:21:24.095Z,100326.94
2019-02-20T10:23:50.660Z,100326.23
2019-02-20T10:26:17.347Z,100327.50
2019-02-20T10:28:43.870Z,100344.70
2019-02-20T10:31:10.435Z,100340.12
2019-02-20T10:33:37.568Z,100346.13
2019-02-20T10:36:04.128Z,100347.20
2019-02-20T10:38:30.667Z,100336.63
2019-02-20T10:40:57.222Z,100342.38
2019-02-20T10:43:23.766Z,100351.40
2019-02-20T10:45:50.320Z,100351.27
2019-02-20T10:48:16.859Z,100346.13
2019-02-20T10:50:43.426Z,100347.08
2019-02-20T10:53:09.957Z,100349.33
2019-02-20T10:55:36.527Z,100347.61
2019-02-20T10:58:03.072Z,100348.30
2019-02-20T11:00:30.050Z,100343.88
2019-02-20T11:02:56.610Z,100338.31
2019-02-20T11:05:23.168Z,100327.59
2019-02-20T11:07:49.716Z,100341.39
2019-02-20T11:10:16.265Z,100345.70
2019-02-20T11:12:42.813Z,100339.64
2019-02-20T11:15:09.373Z,100330.83
2019-02-20T11:17:37.216Z,100339.92
2019-02-20T11:20:04.463Z,100330.88
2019-02-20T11:22:32.098Z,100338.75
2019-02-20T11:24:58.783Z,100340.38
2019-02-20T11:27:25.351Z,100335.33
2019-02-20T11:29:51.886Z,100348.70
2019-02-20T11:32:18.448Z,100338.63
2019-02-20T11:34:44.998Z,100344.53
2019-02-20T11:37:11.569Z,100351.27
2019-02-20T11:39:38.144Z,100346.15
2019-02-20T11:42:04.668Z,100344.16
2019-02-20T11:44:31.215Z,100353.03
2019-02-20T11:46:57.770Z,100343.86
2019-02-20T11:49:24.311Z,100329.14
2019-02-20T11:51:50.873Z,100339.66
2019-02-20T11:54:17.409Z,100339.84
2019-02-20T11:56:43.976Z,100340.16
2019-02-20T11:59:10.530Z,100338.05
2019-02-20T12:01:37.095Z,100341.05
2019-02-20T12:04:03.638Z,100346.61
2019-02-20T12:06:30.205Z,100339.41
2019-02-20T12:08:56.750Z,100342.42
2019-02-20T12:11:23.280Z,100336.98
2019-02-20T12:13:49.837Z,100337.85
2019-02-20T12:16:16.412Z,100335.08
2019-02-20T12:18:42.996Z,100336.33
2019-02-20T12:21:09.532Z,100327.31
2019-02-20T12:23:36.857Z,100320.32
2019-02-20T12:26:03.687Z,100333.22
2019-02-20T12:28:30.242Z,100332.65
2019-02-20T12:30:56.784Z,100329.64
2019-02-20T12:33:23.354Z,100337.00
2019-02-20T12:35:49.900Z,100331.55
2019-02-20T12:38:16.464Z,100339.14
2019-02-20T12:40:43.070Z,100338.80
2019-02-20T12:43:09.611Z,100336.63
2019-02-20T12:45:36.160Z,100321.86
2019-02-20T12:48:02.729Z,100322.37
2019-02-20T12:50:29.288Z,100332.59
2019-02-20T12:52:55.857Z,100334.30
2019-02-20T12:55:22.402Z,100339.45
2019-02-20T12:57:48.975Z,100330.09
2019-02-20T13:00:16.237Z,100321.66
2019-02-20T13:02:42.796Z,100328.95
2019-02-20T13:05:09.397Z,100328.59
2019-02-20T13:07:35.952Z,100318.69
2019-02-20T13:10:02.519Z,100323.62
2019-02-20T13:12:30.459Z,100309.13
2019-02-20T13:14:57.131Z,100318.22
2019-02-20T13:17:23.687Z,100321.87
2019-02-20T13:19:50.227Z,100309.56
2019-02-20T13:22:16.903Z,100308.63
2019-02-20T13:24:43.975Z,100317.64
2019-02-20T13:27:10.720Z,100314.41
2019-02-20T13:29:37.278Z,100312.63
2019-02-20T13:32:03.841Z,100308.52
2019-02-20T13:34:30.413Z,100320.91
2019-02-20T13:36:56.985Z,100322.89
2019-02-20T13:39:23.528Z,100313.09
2019-02-20T13:41:50.092Z,100310.30
2019-02-20T13:44:16.634Z,100324.09
2019-02-20T13:46:43.172Z,100316.88
2019-02-20T13:49:10.126Z,100329.27
2019-02-20T13:51:36.670Z,100331.62
2019-02-20T13:54:03.219Z,100321.71
2019-02-20T13:56:29.769Z,100312.75
2019-02-20T13:58:56.323Z,100331.45
2019-02-20T14:01:22.868Z,100321.25
2019-02-20T14:03:49.520Z,100315.73
2019-02-20T14:06:16.057Z,100325.17
2019-02-20T14:08:42.652Z,100329.78
2019-02-20T14:11:09.353Z,100311.46
2019-02-20T14:13:35.922Z,100316.17
2019-02-20T14:16:02.463Z,100326.59
2019-02-20T14:18:29.025Z,100315.63
2019-02-20T14:20:55.568Z,100316.80
2019-02-20T14:23:22.154Z,100292.43
2019-02-20T14:25:48.732Z,100302.95
2019-02-20T14:28:15.273Z,100309.56
2019-02-20T14:30:42.131Z,100306.71
2019-02-20T14:33:08.670Z,100309.13
2019-02-20T14:35:35.229Z,100303.94
2019-02-20T14:38:01.769Z,100304.38
2019-02-20T14:40:28.325Z,100317.29
2019-02-20T14:42:54.859Z,100305.09
2019-02-20T14:45:21.416Z,100302.58
2019-02-20T14:47:47.953Z,100315.70
2019-02-20T14:50:15.031Z,100314.41
2019-02-20T14:52:41.560Z,100309.25
2019-02-20T14:55:08.144Z,100312.19
2019-02-20T14:57:34.679Z,100314.20
2019-02-20T15:00:01.234Z,100315.75
2019-02-20T15:02:27.773Z,100307.11
2019-02-20T15:04:54.333Z,100318.27
2019-02-20T15:07:20.864Z,100296.55
2019-02-20T15:09:47.420Z,100311.86
2019-02-20T15:12:14.172Z,100319.48
2019-02-20T15:14:40.728Z,100319.83
2019-02-20T15:17:07.955Z,100318.59
2019-02-20T15:19:34.617Z,100316.05
2019-02-20T15:22:01.195Z,100317.58
2019-02-20T15:24:27.741Z,100309.56
2019-02-20T15:26:54.282Z,100311.13
2019-02-20T15:29:20.851Z,100318.75
2019-02-20T15:31:47.797Z,100317.69
2019-02-20T15:34:14.350Z,100310.24
2019-02-20T15:36:40.930Z,100321.12
2019-02-20T15:39:07.684Z,100321.08
2019-02-20T15:41:34.225Z,100320.11
2019-02-20T15:44:00.886Z,100329.67
2019-02-20T15:46:27.436Z,100338.15
2019-02-20T15:48:53.997Z,100328.20
2019-02-20T15:51:20.853Z,100334.81
2019-02-20T15:53:47.379Z,100338.80
2019-02-20T15:56:13.928Z,100329.45
2019-02-20T15:58:40.458Z,100325.30
2019-02-20T16:01:08.155Z,100332.36
2019-02-20T16:03:34.717Z,100331.09
2019-02-20T16:06:01.283Z,100336.13
2019-02-20T16:08:27.820Z,100337.28
2019-02-20T16:10:55.297Z,100340.50
2019-02-20T16:13:22.102Z,100338.25
2019-02-20T16:15:48.658Z,100338.63
2019-02-20T16:18:15.202Z,100332.92
2019-02-20T16:20:41.765Z,100343.05
2019-02-20T16:23:08.353Z,100342.44
2019-02-20T16:25:34.911Z,100348.55
2019-02-20T16:28:01.455Z,100353.66
2019-02-20T16:30:28.005Z,100353.58
2019-02-20T16:32:54.936Z,100356.50
2019-02-20T16:35:21.504Z,100352.34
2019-02-20T16:37:48.043Z,100360.17
2019-02-20T16:40:14.611Z,100355.51
2019-02-20T16:42:41.162Z,100354.22
2019-02-20T16:45:14.538Z,100355.97
2019-02-20T16:47:41.089Z,100358.51
2019-02-20T16:50:07.948Z,100358.05
2019-02-20T16:52:34.506Z,100356.80
2019-02-20T16:55:01.072Z,100356.70
2019-02-20T16:57:27.610Z,100362.33
2019-02-20T16:59:56.598Z,100360.92
2019-02-20T17:02:23.132Z,100367.73
2019-02-20T17:04:49.681Z,100367.36
2019-02-20T17:07:16.232Z,100377.09
2019-02-20T17:09:43.071Z,100374.77
2019-02-20T17:12:09.627Z,100377.03
2019-02-20T17:14:36.643Z,100379.63
2019-02-20T17:17:03.612Z,100385.02
2019-02-20T17:19:30.146Z,100386.64
2019-02-20T17:21:56.725Z,100395.44
2019-02-20T17:24:23.265Z,100400.21
2019-02-20T17:26:49.822Z,100398.92
2019-02-20T17:29:16.750Z,100399.05
2019-02-20T17:31:43.295Z,100403.15
2019-02-20T17:34:12.144Z,100409.95
2019-02-20T17:36:38.711Z,100412.88
2019-02-20T17:39:07.320Z,100413.40
2019-02-20T17:41:34.077Z,100414.74
2019-02-20T17:44:00.623Z,100385.45
2019-02-20T17:46:27.175Z,100414.84
2019-02-20T17:48:53.920Z,100411.80
2019-02-20T17:51:20.461Z,100414.84
2019-02-20T17:53:47.009Z,100417.94
2019-02-20T17:56:13.569Z,100420.64
2019-02-20T17:58:40.122Z,100428.63
2019-02-20T18:01:10.005Z,100426.44
2019-02-20T18:03:36.916Z,100417.18
2019-02-20T18:06:03.526Z,100416.84
2019-02-20T18:08:30.077Z,100422.19
2019-02-20T18:10:56.624Z,100421.39
2019-02-20T18:13:23.180Z,100425.66
2019-02-20T18:15:49.733Z,100431.61
2019-02-20T18:18:16.291Z,100432.63
2019-02-20T18:20:43.437Z,100435.72
2019-02-20T18:23:10.113Z,100438.33
2019-02-20T18:25:36.653Z,100436.04
2019-02-20T18:28:03.205Z,100446.84
2019-02-20T18:30:31.703Z,100443.42
2019-02-20T18:32:58.216Z,100448.16
2019-02-20T18:35:24.748Z,100448.43
2019-02-20T18:37:51.301Z,100451.41
2019-02-20T18:40:17.838Z,100452.01
2019-02-20T18:42:44.460Z,100456.87
2019-02-20T18:45:11.073Z,100448.13
2019-02-20T18:47:37.606Z,100449.23
2019-02-20T18:50:04.818Z,100449.41
2019-02-20T18:52:31.381Z,100452.80
2019-02-20T18:55:05.548Z,100452.00
2019-02-20T18:57:26.373Z,100457.90
2019-02-20T18:59:52.911Z,100464.06
2019-02-20T19:02:19.472Z,100461.38
2019-02-20T19:04:45.997Z,100454.73
2019-02-20T19:07:12.792Z,100459.55
2019-02-20T19:09:41.067Z,100457.91
2019-02-20T19:12:33.230Z,100461.58
2019-02-20T19:15:40.679Z,100457.17
2019-02-20T19:18:30.668Z,100465.48
2019-02-20T19:21:25.432Z,100461.78
2019-02-20T19:24:49.135Z,100460.02
2019-02-20T19:27:42.517Z,100458.25
2019-02-20T19:31:00.025Z,100468.42
2019-02-20T19:33:51.757Z,100466.20
2019-02-20T19:37:09.406Z,100470.91
2019-02-20T19:40:12.262Z,100468.39
2019-02-20T19:42:47.319Z,100471.89
2019-02-20T19:45:26.313Z,100471.51
2019-02-20T19:48:30.953Z,100474.48
2019-02-20T19:51:10.588Z,100467.94
2019-02-20T19:54:24.933Z,100463.43
2019-02-20T19:57:42.395Z,100462.49
2019-02-20T20:01:00.110Z,100457.72
2019-02-20T20:03:59.250Z,100467.09
2019-02-20T20:06:58.610Z,100457.59
2019-02-20T20:09:53.675Z,100455.56
2019-02-20T20:12:37.268Z,100455.09
2019-02-20T20:15:31.996Z,100457.64
2019-02-20T20:18:41.339Z,100457.27
2019-02-20T20:21:32.714Z,100456.52
2019-02-20T20:24:27.323Z,100459.89
2019-02-20T20:27:48.337Z,100455.97
2019-02-20T20:30:37.197Z,100459.22
2019-02-20T20:33:46.064Z,100459.72
2019-02-20T20:36:53.264Z,100461.73
2019-02-20T20:40:02.294Z,100460.84
2019-02-20T20:42:44.441Z,100457.52
2019-02-20T20:45:50.277Z,100459.09
2019-02-20T20:49:06.771Z,100457.30
2019-02-20T20:52:14.254Z,100452.14
2019-02-20T20:55:10.773Z,100453.97
2019-02-20T20:58:19.941Z,100450.41
2019-02-20T21:01:25.840Z,100453.27
2019-02-20T21:04:01.924Z,100448.66
2019-02-20T21:07:13.599Z,100454.73
2019-02-20T21:10:23.692Z,100446.73
2019-02-20T21:13:21.151Z,100453.44
2019-02-20T21:16:35.776Z,100443.41
2019-02-20T21:19:31.375Z,100439.89
2019-02-20T21:22:27.572Z,100443.50
2019-02-20T21:25:39.626Z,100441.34
2019-02-20T21:28:16.932Z,100443.84
2019-02-20T21:31:00.085Z,100442.84
2019-02-20T21:34:10.640Z,100450.12
2019-02-20T21:37:01.668Z,100460.06
2019-02-20T21:39:50.415Z,100455.99
2019-02-20T21:43:08.114Z,100456.50
2019-02-20T21:45:51.100Z,100455.13
2019-02-20T21:48:50.490Z,100458.96
2019-02-20T21:51:31.664Z,100458.97
2019-02-20T21:54:27.302Z,100457.41
2019-02-20T21:57:14.602Z,100452.66
2019-02-20T22:00:08.443Z,100455.13
2019-02-20T22:02:58.145Z,100458.40
2019-02-20T22:06:12.828Z,100459.03
2019-02-20T22:09:20.337Z,100467.72
2019-02-20T22:11:56.910Z,100465.95
2019-02-20T22:14:41.739Z,100466.01
2019-02-20T22:17:47.579Z,100465.31
2019-02-20T22:20:59.221Z,100467.06
2019-02-20T22:23:34.242Z,100472.80
2019-02-20T22:26:19.460Z,100473.83
2019-02-20T22:29:37.185Z,100472.80
2019-02-20T22:32:39.168Z,100478.43
2019-02-20T22:35:39.160Z,100466.52
2019-02-20T22:38:48.308Z,100470.80
2019-02-20T22:41:37.626Z,100475.64
2019-02-20T22:44:49.632Z,100468.70
2019-02-20T22:47:41.250Z,100474.17
2019-02-20T22:50:49.140Z,100479.68
2019-02-20T22:53:50.937Z,100485.09
2019-02-20T22:56:41.425Z,100479.33
2019-02-20T22:59:37.489Z,100477.42
2019-02-20T23:02:46.487Z,100479.83
2019-02-20T23:05:44.076Z,100483.49
2019-02-20T23:08:29.284Z,100475.84
2019-02-20T23:11:43.830Z,100483.83
2019-02-20T23:14:32.565Z,100479.11
2019-02-20T23:16:59.119Z,100475.47
2019-02-20T23:19:25.675Z,100475.25
2019-02-20T23:21:52.234Z,100479.99
2019-02-20T23:24:18.785Z,100475.38
2019-02-20T23:26:45.345Z,100468.76
2019-02-20T23:29:11.873Z,100487.55
2019-02-20T23:31:38.432Z,100492.74
2019-02-20T23:34:04.965Z,100493.67
2019-02-20T23:36:31.543Z,100494.74
2019-02-20T23:38:58.089Z,100497.21
2019-02-20T23:41:24.622Z,100503.52
2019-02-20T23:43:51.180Z,100502.80
2019-02-20T23:46:17.709Z,100503.48
2019-02-20T23:48:44.323Z,100505.52
2019-02-20T23:51:10.804Z,100502.84
2019-02-20T23:53:37.354Z,100511.96
2019-02-20T23:56:04.192Z,100509.52
2019-02-20T23:58:30.754Z,100529.06
